Time;durP1;ratioP1;P1;durP2;ratioP2;P2;SDS_P1;SDS_P2;PMS_P1;PMS_P2;Temp;Humidity;BMP_temperature;BMP_pressure;BME280_temperature;BME280_humidity;BME280_pressure;Samples;Min_cycle;Max_cycle;Signal;HPM_P1;HPM_P2
2021/06/14 00:03:51;;;;;;;10.07;2.65;;;;;;;;;;8415234;27;20509;-68
2021/06/14 00:07:57;;;;;;;6.70;2.53;;;;;;;;;;8419678;27;20469;-68
2021/06/14 00:12:05;;;;;;;5.45;1.92;;;;;;;;;;8417383;27;20055;-69
2021/06/14 00:16:11;;;;;;;10.00;2.67;;;;;;;;;;8417388;27;20385;-68
2021/06/14 00:20:19;;;;;;;8.10;3.00;;;;;;;;;;8418065;27;20354;-68
2021/06/14 00:24:24;;;;;;;6.60;2.42;;;;;;;;;;8404716;27;20047;-68
2021/06/14 00:28:34;;;;;;;6.40;2.40;;;;;;;;;;8394942;27;20051;-68
2021/06/14 00:32:41;;;;;;;7.13;2.38;;;;;;;;;;8394987;27;20063;-68
2021/06/14 00:36:47;;;;;;;6.25;2.15;;;;;;;;;;8393592;27;20077;-69
2021/06/14 00:40:52;;;;;;;8.95;2.05;;;;;;;;;;8375603;27;20487;-68
2021/06/14 00:44:56;;;;;;;7.03;1.98;;;;;;;;;;8393591;27;20051;-67
2021/06/14 00:49:02;;;;;;;7.22;2.13;;;;;;;;;;8392821;27;20373;-68
2021/06/14 00:53:12;;;;;;;8.65;2.05;;;;;;;;;;8376015;27;20466;-71
2021/06/14 00:57:17;;;;;;;7.55;2.42;;;;;;;;;;8394328;27;20335;-68
2021/06/14 01:01:23;;;;;;;8.57;2.15;;;;;;;;;;8376470;27;20069;-69
2021/06/14 01:05:42;;;;;;;4.53;1.85;;;;;;;;;;8376781;27;20047;-68
2021/06/14 01:09:49;;;;;;;3.72;1.30;;;;;;;;;;8393658;27;20327;-69
2021/06/14 01:14:11;;;;;;;7.55;2.22;;;;;;;;;;8392899;27;20073;-69
2021/06/14 01:18:26;;;;;;;9.27;2.38;;;;;;;;;;8376982;27;20476;-68
2021/06/14 01:23:17;;;;;;;4.97;2.13;;;;;;;;;;8359282;27;20365;-69
2021/06/14 01:27:39;;;;;;;4.45;1.83;;;;;;;;;;8373100;27;20441;-69
2021/06/14 01:31:51;;;;;;;5.25;1.73;;;;;;;;;;8374125;27;20047;-68
2021/06/14 01:36:18;;;;;;;9.50;2.40;;;;;;;;;;8357506;27;20417;-69
2021/06/14 01:40:24;;;;;;;12.23;2.22;;;;;;;;;;8392865;27;20351;-68
2021/06/14 01:44:33;;;;;;;6.63;2.35;;;;;;;;;;8394563;27;20350;-68
2021/06/14 01:48:42;;;;;;;10.38;2.15;;;;;;;;;;8392425;27;20370;-69
2021/06/14 01:52:51;;;;;;;6.68;2.13;;;;;;;;;;8373814;27;20475;-69
2021/06/14 01:56:58;;;;;;;4.50;2.30;;;;;;;;;;8374789;27;20480;-68
2021/06/14 02:01:36;;;;;;;9.13;3.03;;;;;;;;;;8394740;27;20466;-68
2021/06/14 02:05:45;;;;;;;8.40;2.50;;;;;;;;;;8375684;27;20462;-68
2021/06/14 02:09:53;;;;;;;;;;;;;;;;;;8357786;27;20362;-69
2021/06/14 02:13:59;;;;;;;7.97;2.55;;;;;;;;;;8390778;27;20346;-69
2021/06/14 02:18:06;;;;;;;8.73;2.80;;;;;;;;;;8357520;27;20381;-68
2021/06/14 02:22:15;;;;;;;10.02;2.92;;;;;;;;;;8356740;27;20354;-69
2021/06/14 02:26:23;;;;;;;5.72;2.90;;;;;;;;;;8373937;27;20367;-68
2021/06/14 02:30:30;;;;;;;6.65;2.25;;;;;;;;;;8373414;27;20055;-68
2021/06/14 02:34:43;;;;;;;6.97;2.20;;;;;;;;;;8372888;27;20354;-68
2021/06/14 02:38:48;;;;;;;6.13;2.58;;;;;;;;;;8373547;27;20404;-68
2021/06/14 02:43:06;;;;;;;5.00;2.50;;;;;;;;;;8357735;27;20377;-68
2021/06/14 02:47:16;;;;;;;10.55;3.20;;;;;;;;;;8355761;27;20365;-68
2021/06/14 02:51:25;;;;;;;8.60;2.75;;;;;;;;;;8357725;27;20496;-68
2021/06/14 02:55:35;;;;;;;8.68;2.90;;;;;;;;;;8372638;27;20043;-68
2021/06/14 02:59:43;;;;;;;8.57;3.17;;;;;;;;;;8392863;27;20380;-68
2021/06/14 03:03:54;;;;;;;7.47;3.00;;;;;;;;;;8356231;27;20066;-68
2021/06/14 03:08:02;;;;;;;10.43;3.07;;;;;;;;;;8372714;27;20346;-68
2021/06/14 03:12:09;;;;;;;10.23;3.13;;;;;;;;;;8389944;28;20358;-68
2021/06/14 03:16:18;;;;;;;8.75;3.22;;;;;;;;;;8373076;28;20453;-69
2021/06/14 03:20:25;;;;;;;8.95;2.72;;;;;;;;;;8372266;28;20458;-70
2021/06/14 03:24:31;;;;;;;10.70;2.92;;;;;;;;;;8356685;28;20419;-68
2021/06/14 03:28:43;;;;;;;9.35;2.70;;;;;;;;;;8355652;28;20481;-68
2021/06/14 03:32:50;;;;;;;10.75;3.67;;;;;;;;;;8371689;28;20359;-69
2021/06/14 03:36:58;;;;;;;4.88;2.83;;;;;;;;;;8389826;28;20503;-69
2021/06/14 03:41:07;;;;;;;;;;;;;;;;;;8373220;28;20360;-69
2021/06/14 03:45:13;;;;;;;7.10;3.30;;;;;;;;;;8389636;28;20338;-69
2021/06/14 03:49:21;;;;;;;6.15;2.80;;;;;;;;;;8390179;28;20074;-68
2021/06/14 03:53:34;;;;;;;7.20;2.95;;;;;;;;;;8390057;28;20074;-69
2021/06/14 03:57:41;;;;;;;6.18;2.90;;;;;;;;;;8389569;27;20373;-69
2021/06/14 04:01:46;;;;;;;9.13;3.45;;;;;;;;;;8376440;27;20354;-68
2021/06/14 04:05:51;;;;;;;10.13;3.13;;;;;;;;;;8397659;27;20357;-68
2021/06/14 04:10:04;;;;;;;10.15;3.20;;;;;;;;;;8360161;27;20518;-69
2021/06/14 04:14:09;;;;;;;9.30;2.77;;;;;;;;;;8394712;27;20480;-68
2021/06/14 04:18:14;;;;;;;7.47;3.03;;;;;;;;;;8377119;27;20355;-69
2021/06/14 04:22:20;;;;;;;5.88;2.88;;;;;;;;;;8376545;27;20400;-69
2021/06/14 04:26:25;;;;;;;8.00;3.53;;;;;;;;;;8394223;27;20055;-69
2021/06/14 04:30:30;;;;;;;9.60;2.92;;;;;;;;;;8377765;27;20047;-69
2021/06/14 04:34:36;;;;;;;7.43;2.95;;;;;;;;;;8394619;27;20465;-70
2021/06/14 04:38:42;;;;;;;10.73;3.05;;;;;;;;;;8397521;27;20542;-69
2021/06/14 04:42:47;;;;;;;11.98;3.63;;;;;;;;;;8393986;27;20339;-69
2021/06/14 04:46:52;;;;;;;5.82;3.03;;;;;;;;;;8376567;27;20488;-69
2021/06/14 04:50:58;;;;;;;7.28;2.83;;;;;;;;;;8394163;27;20082;-69
2021/06/14 04:55:03;;;;;;;12.73;3.30;;;;;;;;;;8394009;27;20069;-68
2021/06/14 04:59:09;;;;;;;5.15;2.40;;;;;;;;;;8358674;27;20047;-69
2021/06/14 05:03:15;;;;;;;8.15;2.90;;;;;;;;;;8394009;27;20047;-69
2021/06/14 05:07:20;;;;;;;11.02;3.40;;;;;;;;;;8375505;27;20407;-70
2021/06/14 05:11:26;;;;;;;15.60;3.85;;;;;;;;;;8393067;27;20493;-69
2021/06/14 05:15:30;;;;;;;4.88;2.78;;;;;;;;;;8375370;27;20473;-68
2021/06/14 05:19:36;;;;;;;7.85;3.20;;;;;;;;;;8376713;27;20465;-68
2021/06/14 05:23:41;;;;;;;7.80;2.88;;;;;;;;;;8392984;27;20358;-69
2021/06/14 05:27:47;;;;;;;6.88;2.28;;;;;;;;;;8375580;27;20350;-69
2021/06/14 05:31:52;;;;;;;8.30;2.67;;;;;;;;;;8374613;27;20486;-68
2021/06/14 05:35:58;;;;;;;9.30;2.85;;;;;;;;;;8392362;27;20501;-69
2021/06/14 05:40:05;;;;;;;10.40;2.63;;;;;;;;;;8393003;27;20342;-69
2021/06/14 05:44:11;;;;;;;8.95;2.80;;;;;;;;;;8373879;27;20445;-69
2021/06/14 05:48:15;;;;;;;8.90;3.15;;;;;;;;;;8393379;27;20473;-69
2021/06/14 05:52:19;;;;;;;9.75;2.50;;;;;;;;;;8391999;27;20403;-69
2021/06/14 05:56:25;;;;;;;5.25;2.72;;;;;;;;;;8372546;27;20470;-68
2021/06/14 06:00:31;;;;;;;9.57;2.80;;;;;;;;;;8391956;27;20357;-69
2021/06/14 06:04:36;;;;;;;8.07;2.85;;;;;;;;;;8373707;27;20461;-69
2021/06/14 06:08:42;;;;;;;9.60;2.63;;;;;;;;;;8394296;27;20453;-68
2021/06/14 06:12:47;;;;;;;7.97;2.75;;;;;;;;;;8374297;27;20475;-69
2021/06/14 06:16:52;;;;;;;6.25;2.60;;;;;;;;;;8391017;27;20450;-69
2021/06/14 06:20:58;;;;;;;5.03;1.95;;;;;;;;;;8389174;27;20353;-69
2021/06/14 06:25:16;;;;;;;7.03;2.33;;;;;;;;;;8389702;27;20324;-69
2021/06/14 06:29:21;;;;;;;4.38;2.28;;;;;;;;;;8373544;27;20495;-69
2021/06/14 06:33:27;;;;;;;7.22;1.80;;;;;;;;;;8393050;27;20468;-69
2021/06/14 06:37:32;;;;;;;6.05;2.30;;;;;;;;;;8391285;27;20477;-69
2021/06/14 06:41:38;;;;;;;7.15;2.00;;;;;;;;;;8390567;27;20488;-69
2021/06/14 06:45:45;;;;;;;6.97;1.60;;;;;;;;;;8390162;27;20351;-68
2021/06/14 06:49:57;;;;;;;6.35;1.80;;;;;;;;;;8390803;27;20435;-69
2021/06/14 06:54:12;;;;;;;3.47;1.45;;;;;;;;;;8372145;27;20412;-69
2021/06/14 06:58:21;;;;;;;4.75;1.98;;;;;;;;;;8390968;27;20483;-69
2021/06/14 07:02:27;;;;;;;2.92;1.40;;;;;;;;;;8373446;27;20402;-69
2021/06/14 07:06:33;;;;;;;6.35;1.60;;;;;;;;;;8394002;27;20496;-69
2021/06/14 07:10:38;;;;;;;5.60;1.50;;;;;;;;;;8391879;27;20159;-69
2021/06/14 07:14:44;;;;;;;3.20;1.67;;;;;;;;;;8390681;28;20492;-69
2021/06/14 07:18:51;;;;;;;5.10;1.65;;;;;;;;;;8391824;28;20400;-70
2021/06/14 07:22:59;;;;;;;5.30;1.85;;;;;;;;;;8390775;28;20457;-69
2021/06/14 07:27:04;;;;;;;7.40;1.50;;;;;;;;;;8372928;28;20358;-69
2021/06/14 07:31:10;;;;;;;6.43;2.03;;;;;;;;;;8389064;28;20044;-69
2021/06/14 07:35:16;;;;;;;4.10;1.50;;;;;;;;;;8395111;27;20454;-69
2021/06/14 07:39:20;;;;;;;8.23;1.92;;;;;;;;;;8376657;27;20365;-70
2021/06/14 07:43:27;;;;;;;3.88;1.42;;;;;;;;;;8396453;27;20454;-70
2021/06/14 07:47:33;;;;;;;6.57;1.65;;;;;;;;;;8378231;27;20357;-70
2021/06/14 07:51:38;;;;;;;5.45;1.63;;;;;;;;;;8398004;27;20491;-69
2021/06/14 07:55:44;;;;;;;8.60;1.63;;;;;;;;;;8397906;27;20353;-69
2021/06/14 07:59:49;;;;;;;3.22;1.40;;;;;;;;;;8380022;27;20450;-69
2021/06/14 08:03:54;;;;;;;6.22;1.52;;;;;;;;;;8398271;27;20047;-70
2021/06/14 08:07:59;;;;;;;4.43;1.30;;;;;;;;;;8380868;27;20353;-69
2021/06/14 08:12:06;;;;;;;5.07;1.25;;;;;;;;;;8396933;27;20499;-70
2021/06/14 08:16:12;;;;;;;4.25;1.20;;;;;;;;;;8380073;27;20450;-69
2021/06/14 08:20:29;;;;;;;4.10;1.60;;;;;;;;;;8380305;27;20454;-70
2021/06/14 08:29:01;;;;;;;5.63;1.17;;;;;;;;;;8379255;27;20070;-69
2021/06/14 08:33:07;;;;;;;2.92;0.75;;;;;;;;;;8394995;27;20220;-69
2021/06/14 08:37:12;;;;;;;5.32;1.35;;;;;;;;;;8394748;27;20369;-69
2021/06/14 08:41:20;;;;;;;4.43;1.30;;;;;;;;;;8393722;27;20473;-69
2021/06/14 08:45:26;;;;;;;4.05;1.40;;;;;;;;;;8394489;27;20335;-70
2021/06/14 08:49:32;;;;;;;6.28;1.10;;;;;;;;;;8376187;27;20504;-69
2021/06/14 08:53:41;;;;;;;4.13;1.05;;;;;;;;;;8376205;27;20385;-69
2021/06/14 08:57:47;;;;;;;4.70;0.98;;;;;;;;;;8392946;27;20497;-69
2021/06/14 09:01:53;;;;;;;3.20;1.00;;;;;;;;;;8393085;27;20473;-69
2021/06/14 09:05:58;;;;;;;1.30;0.70;;;;;;;;;;8376481;27;20469;-68
2021/06/14 09:10:06;;;;;;;2.33;0.70;;;;;;;;;;8393526;27;20382;-68
2021/06/14 09:14:17;;;;;;;2.90;1.05;;;;;;;;;;8392109;27;20385;-69
2021/06/14 09:18:26;;;;;;;3.08;0.93;;;;;;;;;;8394276;27;20047;-69
2021/06/14 09:22:34;;;;;;;1.55;0.70;;;;;;;;;;8393370;27;20365;-71
2021/06/14 09:26:43;;;;;;;1.30;0.63;;;;;;;;;;8395959;27;20660;-68
2021/06/14 09:30:49;;;;;;;7.20;1.15;;;;;;;;;;8397644;27;20499;-69
2021/06/14 09:34:54;;;;;;;1.10;0.70;;;;;;;;;;8394621;27;20470;-68
2021/06/14 09:39:16;;;;;;;2.67;1.13;;;;;;;;;;8377939;27;20132;-68
2021/06/14 09:43:35;;;;;;;5.60;1.40;;;;;;;;;;8395521;27;20519;-68
2021/06/14 09:47:41;;;;;;;5.80;0.98;;;;;;;;;;8377078;27;20459;-68
2021/06/14 09:51:51;;;;;;;2.20;0.90;;;;;;;;;;8394859;27;20365;-69
2021/06/14 09:55:56;;;;;;;1.00;0.60;;;;;;;;;;8395832;27;20361;-68
2021/06/14 10:00:12;;;;;;;3.20;0.80;;;;;;;;;;8376755;27;20350;-68
2021/06/14 10:04:20;;;;;;;2.50;0.90;;;;;;;;;;8396122;27;20446;-68
2021/06/14 10:08:34;;;;;;;4.53;0.90;;;;;;;;;;8394633;27;20470;-69
2021/06/14 10:12:39;;;;;;;3.03;0.90;;;;;;;;;;8393874;27;20050;-69
2021/06/14 10:16:49;;;;;;;1.65;0.88;;;;;;;;;;8392854;27;20481;-68
2021/06/14 10:20:54;;;;;;;3.10;1.10;;;;;;;;;;8377623;27;20069;-69
2021/06/14 10:25:00;;;;;;;1.02;0.70;;;;;;;;;;8394201;27;20355;-69
2021/06/14 10:29:08;;;;;;;1.23;0.70;;;;;;;;;;8392718;27;20061;-68
2021/06/14 10:33:16;;;;;;;2.47;0.90;;;;;;;;;;8373469;27;20492;-69
2021/06/14 10:37:24;;;;;;;1.17;0.73;;;;;;;;;;8391692;27;20403;-69
2021/06/14 10:41:29;;;;;;;2.88;0.70;;;;;;;;;;8373243;27;20515;-68
2021/06/14 10:45:35;;;;;;;2.13;0.80;;;;;;;;;;8392352;27;20396;-68
2021/06/14 10:49:41;;;;;;;1.67;0.80;;;;;;;;;;8390941;27;20368;-69
2021/06/14 10:53:50;;;;;;;1.30;0.70;;;;;;;;;;8390996;27;20351;-68
2021/06/14 10:57:56;;;;;;;2.70;0.80;;;;;;;;;;8389424;27;20399;-68
2021/06/14 11:02:10;;;;;;;1.13;0.70;;;;;;;;;;8390961;27;20489;-68
2021/06/14 11:06:17;;;;;;;1.50;0.60;;;;;;;;;;8390380;27;20499;-70
2021/06/14 11:10:29;;;;;;;1.23;0.75;;;;;;;;;;8392816;27;20059;-68
2021/06/14 11:14:37;;;;;;;2.63;0.80;;;;;;;;;;8392058;27;20532;-68
2021/06/14 11:18:44;;;;;;;2.17;0.80;;;;;;;;;;8390973;28;20335;-70
2021/06/14 11:22:50;;;;;;;4.60;1.00;;;;;;;;;;8372686;28;20450;-68
2021/06/14 11:26:58;;;;;;;4.47;0.68;;;;;;;;;;8390371;28;20493;-68
2021/06/14 11:31:14;;;;;;;;;;;;;;;;;;8390469;28;20081;-68
2021/06/14 11:35:21;;;;;;;1.67;0.88;;;;;;;;;;8391214;28;20249;-68
2021/06/14 11:39:27;;;;;;;1.95;0.85;;;;;;;;;;8359089;28;20465;-69
2021/06/14 11:43:32;;;;;;;;;;;;;;;;;;8392771;28;20051;-68
2021/06/14 11:47:41;;;;;;;1.27;0.70;;;;;;;;;;8393630;28;19942;-68
2021/06/14 11:51:47;;;;;;;1.48;0.75;;;;;;;;;;8391928;28;20462;-68
2021/06/14 11:55:52;;;;;;;1.10;0.73;;;;;;;;;;8389487;28;20361;-70
2021/06/14 11:59:58;;;;;;;1.45;0.80;;;;;;;;;;8390187;28;20351;-68
2021/06/14 12:04:10;;;;;;;1.98;0.80;;;;;;;;;;8389580;28;20393;-69
2021/06/14 12:08:25;;;;;;;2.40;1.25;;;;;;;;;;8392369;28;20355;-69
2021/06/14 12:12:30;;;;;;;3.35;1.17;;;;;;;;;;8390308;28;20051;-68
2021/06/14 12:16:35;;;;;;;2.15;1.08;;;;;;;;;;8390862;28;20359;-68
2021/06/14 12:20:44;;;;;;;1.88;0.70;;;;;;;;;;8395509;27;20322;-69
2021/06/14 12:24:48;;;;;;;;;;;;;;;;;;8376869;27;20374;-69
2021/06/14 12:28:53;;;;;;;2.15;0.70;;;;;;;;;;8376685;27;20274;-69
2021/06/14 12:32:59;;;;;;;2.75;0.80;;;;;;;;;;8394495;27;20418;-69
2021/06/14 12:37:10;;;;;;;3.15;0.98;;;;;;;;;;8397542;27;20369;-68
2021/06/14 12:41:17;;;;;;;3.85;1.00;;;;;;;;;;8395397;27;20065;-68
2021/06/14 12:45:22;;;;;;;3.55;1.23;;;;;;;;;;8394364;27;20359;-68
2021/06/14 12:49:31;;;;;;;1.83;1.00;;;;;;;;;;8394087;27;20496;-67
2021/06/14 12:53:38;;;;;;;3.80;1.60;;;;;;;;;;8376159;27;20078;-69
2021/06/14 12:57:43;;;;;;;3.60;0.70;;;;;;;;;;8395325;27;20366;-69
2021/06/14 13:01:50;;;;;;;2.30;0.88;;;;;;;;;;8394247;27;20369;-69
2021/06/14 13:05:54;;;;;;;1.48;1.00;;;;;;;;;;8394808;27;20387;-69
2021/06/14 13:10:00;;;;;;;3.60;1.10;;;;;;;;;;8393047;27;20385;-68
2021/06/14 13:14:06;;;;;;;4.47;1.48;;;;;;;;;;8392595;27;20059;-68
2021/06/14 13:18:15;;;;;;;2.00;1.25;;;;;;;;;;8391901;27;20378;-68
2021/06/14 13:22:21;;;;;;;3.95;1.63;;;;;;;;;;8391783;27;20501;-69
2021/06/14 13:26:45;;;;;;;1.90;0.90;;;;;;;;;;8391776;27;20047;-67
2021/06/14 13:30:54;;;;;;;3.67;0.90;;;;;;;;;;8392429;27;20043;-68
2021/06/14 13:35:04;;;;;;;;;;;;;;;;;;8374416;27;20474;-69
2021/06/14 13:39:14;;;;;;;3.90;1.10;;;;;;;;;;8392501;27;20230;-67
2021/06/14 13:43:34;;;;;;;4.32;1.10;;;;;;;;;;8391988;27;20481;-68
2021/06/14 13:47:42;;;;;;;1.20;0.93;;;;;;;;;;8391178;27;20461;-69
2021/06/14 13:52:00;;;;;;;4.57;1.40;;;;;;;;;;8393284;27;20039;-68
2021/06/14 13:56:07;;;;;;;4.18;1.63;;;;;;;;;;8373939;27;20453;-69
2021/06/14 14:00:15;;;;;;;2.78;1.02;;;;;;;;;;8391466;27;20466;-69
2021/06/14 14:04:22;;;;;;;;;;;;;;;;;;8373121;27;20389;-68
2021/06/14 14:08:26;;;;;;;3.83;1.10;;;;;;;;;;8391746;27;20260;-68
2021/06/14 14:12:45;;;;;;;1.27;0.95;;;;;;;;;;8391828;27;20498;-68
2021/06/14 14:16:51;;;;;;;5.70;1.20;;;;;;;;;;8393966;27;20047;-69
2021/06/14 14:20:57;;;;;;;2.38;1.17;;;;;;;;;;8391501;27;20462;-68
2021/06/14 14:25:04;;;;;;;1.77;0.98;;;;;;;;;;8392912;27;20351;-69
2021/06/14 14:29:32;;;;;;;1.98;0.93;;;;;;;;;;8373386;27;20450;-68
2021/06/14 14:33:38;;;;;;;4.35;1.48;;;;;;;;;;8391537;27;20434;-68
2021/06/14 14:38:08;;;;;;;2.55;1.15;;;;;;;;;;8390397;27;20694;-68
2021/06/14 14:42:21;;;;;;;6.05;1.33;;;;;;;;;;8392407;27;20073;-69
2021/06/14 14:46:29;;;;;;;2.20;1.00;;;;;;;;;;8390249;27;20047;-68
2021/06/14 14:50:42;;;;;;;1.63;1.15;;;;;;;;;;8389798;27;20454;-68
2021/06/14 14:54:56;;;;;;;3.83;1.48;;;;;;;;;;8373126;27;20373;-68
2021/06/14 14:59:02;;;;;;;6.32;1.23;;;;;;;;;;8372363;27;20415;-68
2021/06/14 15:03:08;;;;;;;4.10;1.27;;;;;;;;;;8389721;27;20387;-68
2021/06/14 15:07:13;;;;;;;1.98;1.27;;;;;;;;;;8388866;27;20488;-67
2021/06/14 15:11:18;;;;;;;3.38;1.25;;;;;;;;;;8389144;27;20424;-68
2021/06/14 15:15:23;;;;;;;2.97;1.23;;;;;;;;;;8391075;27;20336;-68
2021/06/14 15:19:34;;;;;;;2.88;1.20;;;;;;;;;;8388497;28;20519;-69
2021/06/14 15:23:45;;;;;;;2.65;0.93;;;;;;;;;;8391068;28;20466;-68
2021/06/14 15:27:51;;;;;;;3.25;1.35;;;;;;;;;;8391176;28;20467;-68
2021/06/14 15:31:57;;;;;;;2.45;1.27;;;;;;;;;;8371696;28;20365;-68
2021/06/14 15:36:05;;;;;;;2.50;1.10;;;;;;;;;;8389007;28;20484;-68
2021/06/14 15:40:11;;;;;;;2.47;1.13;;;;;;;;;;8387139;28;20466;-67
2021/06/14 15:44:17;;;;;;;1.80;1.20;;;;;;;;;;8369341;28;20393;-67
2021/06/14 15:48:22;;;;;;;3.13;1.33;;;;;;;;;;8390053;28;20479;-68
2021/06/14 15:52:28;;;;;;;3.00;1.10;;;;;;;;;;8389355;28;20362;-68
2021/06/14 15:56:34;;;;;;;2.80;1.45;;;;;;;;;;8395121;27;20043;-67
2021/06/14 16:00:39;;;;;;;2.40;1.33;;;;;;;;;;8397846;27;20046;-67
2021/06/14 16:04:45;;;;;;;3.35;1.42;;;;;;;;;;8396332;27;20404;-68
2021/06/14 16:08:54;;;;;;;8.55;1.70;;;;;;;;;;8395761;27;20460;-67
2021/06/14 16:13:00;;;;;;;3.15;1.25;;;;;;;;;;8394768;27;20401;-68
2021/06/14 16:17:06;;;;;;;1.95;1.00;;;;;;;;;;8395535;27;20455;-69
2021/06/14 16:21:11;;;;;;;1.83;1.05;;;;;;;;;;8375890;27;20361;-68
2021/06/14 16:25:17;;;;;;;1.67;1.05;;;;;;;;;;8396059;27;20353;-68
2021/06/14 16:29:23;;;;;;;2.38;1.17;;;;;;;;;;8394940;27;20501;-67
2021/06/14 16:33:28;;;;;;;4.43;1.88;;;;;;;;;;8395794;27;20078;-66
2021/06/14 16:37:34;;;;;;;4.03;1.52;;;;;;;;;;8395764;27;20507;-67
2021/06/14 16:41:40;;;;;;;4.10;1.52;;;;;;;;;;8395032;27;20043;-67
2021/06/14 16:45:46;;;;;;;4.63;1.50;;;;;;;;;;8376059;27;20489;-67
2021/06/14 16:49:51;;;;;;;4.00;1.55;;;;;;;;;;8393803;27;20380;-67
2021/06/14 16:53:57;;;;;;;2.88;1.80;;;;;;;;;;8393896;27;20378;-67
2021/06/14 16:58:02;;;;;;;2.80;1.50;;;;;;;;;;8395920;27;20478;-67
2021/06/14 17:02:08;;;;;;;5.60;1.50;;;;;;;;;;8393862;27;20369;-67
2021/06/14 17:06:13;;;;;;;3.38;1.70;;;;;;;;;;8393307;27;20386;-67
2021/06/14 17:10:19;;;;;;;3.75;1.52;;;;;;;;;;8396288;27;20465;-67
2021/06/14 17:14:24;;;;;;;2.80;1.13;;;;;;;;;;8393617;27;20377;-68
2021/06/14 17:18:30;;;;;;;4.05;1.40;;;;;;;;;;8395382;27;20361;-68
2021/06/14 17:22:36;;;;;;;2.75;1.50;;;;;;;;;;8396523;27;20438;-67
2021/06/14 17:26:41;;;;;;;2.50;1.40;;;;;;;;;;8393004;27;20399;-67
2021/06/14 17:30:47;;;;;;;2.88;1.23;;;;;;;;;;8392446;27;20426;-68
2021/06/14 17:34:52;;;;;;;3.30;1.50;;;;;;;;;;8393504;27;20370;-67
2021/06/14 17:38:58;;;;;;;5.72;1.90;;;;;;;;;;8393173;27;20073;-67
2021/06/14 17:43:05;;;;;;;4.95;1.40;;;;;;;;;;8374830;27;20657;-68
2021/06/14 17:47:17;;;;;;;4.82;1.80;;;;;;;;;;8391876;27;20454;-67
2021/06/14 17:51:22;;;;;;;4.60;2.10;;;;;;;;;;8374649;27;20366;-67
2021/06/14 17:55:30;;;;;;;5.28;1.42;;;;;;;;;;8393248;27;20354;-67
2021/06/14 17:59:35;;;;;;;2.85;1.63;;;;;;;;;;8391889;27;20500;-68
2021/06/14 18:03:42;;;;;;;2.72;1.48;;;;;;;;;;8392760;27;20499;-69
2021/06/14 18:07:46;;;;;;;3.88;1.50;;;;;;;;;;8374364;27;20051;-67
2021/06/14 18:11:54;;;;;;;2.88;1.38;;;;;;;;;;8392621;27;20365;-67
2021/06/14 18:16:00;;;;;;;6.35;2.00;;;;;;;;;;8373849;27;20361;-67
2021/06/14 18:20:09;;;;;;;6.75;1.80;;;;;;;;;;8391604;27;20047;-67
2021/06/14 18:24:15;;;;;;;10.90;1.80;;;;;;;;;;8393405;27;20461;-68
2021/06/14 18:28:20;;;;;;;6.30;1.73;;;;;;;;;;8391654;27;20492;-67
2021/06/14 18:32:26;;;;;;;3.92;2.22;;;;;;;;;;8392231;27;20389;-68
2021/06/14 18:36:31;;;;;;;5.53;2.17;;;;;;;;;;8391006;27;20491;-67
2021/06/14 18:40:37;;;;;;;14.40;6.25;;;;;;;;;;8391836;27;20484;-67
2021/06/14 18:44:42;;;;;;;9.27;4.18;;;;;;;;;;8390922;27;20476;-67
2021/06/14 18:48:50;;;;;;;9.60;3.70;;;;;;;;;;8393218;27;20081;-67
2021/06/14 18:52:56;;;;;;;7.60;3.00;;;;;;;;;;8391995;27;20051;-67
2021/06/14 18:57:01;;;;;;;7.30;2.90;;;;;;;;;;8390733;27;20381;-67
2021/06/14 19:01:07;;;;;;;8.77;3.13;;;;;;;;;;8372360;27;20381;-68
2021/06/14 19:05:16;;;;;;;7.72;3.33;;;;;;;;;;8392728;27;20503;-67
2021/06/14 19:09:22;;;;;;;13.63;2.83;;;;;;;;;;8392051;27;20465;-67
2021/06/14 19:13:27;;;;;;;9.18;3.60;;;;;;;;;;8389395;27;20373;-67
2021/06/14 19:17:34;;;;;;;6.60;2.85;;;;;;;;;;8392399;28;20354;-67
2021/06/14 19:21:40;;;;;;;6.10;2.92;;;;;;;;;;8394341;28;20360;-67
2021/06/14 19:25:45;;;;;;;6.80;2.45;;;;;;;;;;8371977;28;20465;-67
2021/06/14 19:29:54;;;;;;;6.10;2.17;;;;;;;;;;8393377;27;20357;-67
2021/06/14 19:33:59;;;;;;;4.38;2.42;;;;;;;;;;8398896;27;20073;-67
2021/06/14 19:38:05;;;;;;;13.27;2.65;;;;;;;;;;8397487;27;20129;-67
2021/06/14 19:42:12;;;;;;;8.55;2.50;;;;;;;;;;8397403;27;20468;-67
2021/06/14 19:46:18;;;;;;;7.68;2.38;;;;;;;;;;8396732;27;20355;-67
2021/06/14 19:50:24;;;;;;;3.80;2.28;;;;;;;;;;8396160;27;20484;-67
2021/06/14 19:54:30;;;;;;;8.25;2.30;;;;;;;;;;8397215;27;20077;-68
2021/06/14 19:58:35;;;;;;;4.00;2.10;;;;;;;;;;8397079;27;20377;-67
2021/06/14 20:02:40;;;;;;;5.03;2.15;;;;;;;;;;8395578;27;20373;-67
2021/06/14 20:06:46;;;;;;;7.38;3.80;;;;;;;;;;8396643;27;20070;-67
2021/06/14 20:10:51;;;;;;;7.32;2.50;;;;;;;;;;8365223;27;20493;-68
2021/06/14 20:15:03;;;;;;;8.27;2.83;;;;;;;;;;8363377;28;20344;-66
2021/06/14 20:19:08;;;;;;;7.93;3.00;;;;;;;;;;8364520;28;20340;-66
2021/06/14 20:23:14;;;;;;;6.25;2.67;;;;;;;;;;8364047;28;20370;-66
2021/06/14 20:27:22;;;;;;;11.05;2.97;;;;;;;;;;8361241;28;20051;-66
2021/06/14 20:31:28;;;;;;;5.32;2.65;;;;;;;;;;8362245;28;20442;-67
2021/06/14 20:35:34;;;;;;;6.30;3.05;;;;;;;;;;8361964;28;20074;-66
2021/06/14 20:39:39;;;;;;;6.05;3.08;;;;;;;;;;8362436;28;20358;-67
2021/06/14 20:43:45;;;;;;;5.78;2.75;;;;;;;;;;8359327;28;20462;-67
2021/06/14 20:47:50;;;;;;;8.07;2.65;;;;;;;;;;8360907;28;20055;-69
2021/06/14 20:51:55;;;;;;;7.45;3.15;;;;;;;;;;8360334;28;20401;-66
2021/06/14 20:56:01;;;;;;;4.63;2.55;;;;;;;;;;8362954;28;20446;-67
2021/06/14 21:00:08;;;;;;;3.72;2.10;;;;;;;;;;8359212;28;20400;-66
2021/06/14 21:04:14;;;;;;;3.75;1.95;;;;;;;;;;8361094;28;20066;-67
2021/06/14 21:08:19;;;;;;;4.95;2.17;;;;;;;;;;8359378;28;20492;-67
2021/06/14 21:12:25;;;;;;;4.57;2.08;;;;;;;;;;8361436;28;20398;-67
2021/06/14 21:16:31;;;;;;;3.88;2.28;;;;;;;;;;8362478;28;20069;-66
2021/06/14 21:20:40;;;;;;;3.75;2.58;;;;;;;;;;8360097;28;20368;-66
2021/06/14 21:24:45;;;;;;;4.95;2.17;;;;;;;;;;8359203;28;20412;-66
2021/06/14 21:28:51;;;;;;;3.75;2.25;;;;;;;;;;8359999;28;20355;-68
2021/06/14 21:32:56;;;;;;;8.38;2.30;;;;;;;;;;8357706;28;20462;-66
2021/06/14 21:37:04;;;;;;;3.63;2.50;;;;;;;;;;8362611;28;20055;-67
2021/06/14 21:41:08;;;;;;;4.70;3.33;;;;;;;;;;8361529;28;20374;-67
2021/06/14 21:45:16;;;;;;;6.38;2.90;;;;;;;;;;8360973;28;20479;-67
2021/06/14 21:49:21;;;;;;;7.57;3.40;;;;;;;;;;8358645;28;20410;-67
2021/06/14 21:53:27;;;;;;;7.93;3.40;;;;;;;;;;8359487;28;20485;-66
2021/06/14 21:57:33;;;;;;;5.65;2.92;;;;;;;;;;8339466;28;20481;-66
2021/06/14 22:01:38;;;;;;;5.78;2.80;;;;;;;;;;8359908;28;20055;-66
2021/06/14 22:05:44;;;;;;;7.22;2.83;;;;;;;;;;8358004;28;20484;-67
2021/06/14 22:09:49;;;;;;;6.80;3.13;;;;;;;;;;8359079;28;20466;-68
2021/06/14 22:13:57;;;;;;;7.78;2.80;;;;;;;;;;8358376;28;20470;-66
2021/06/14 22:18:03;;;;;;;7.43;3.40;;;;;;;;;;8357819;28;20059;-66
2021/06/14 22:22:09;;;;;;;6.90;3.05;;;;;;;;;;8357670;28;20504;-66
2021/06/14 22:26:14;;;;;;;9.93;3.47;;;;;;;;;;8359012;28;20481;-66
2021/06/14 22:30:20;;;;;;;8.23;3.47;;;;;;;;;;8357105;28;20466;-66
2021/06/14 22:34:26;;;;;;;7.28;3.38;;;;;;;;;;8356837;28;20542;-67
2021/06/14 22:38:31;;;;;;;6.05;3.47;;;;;;;;;;8357399;28;20051;-66
2021/06/14 22:42:37;;;;;;;5.15;2.95;;;;;;;;;;8358140;28;20458;-66
2021/06/14 22:46:42;;;;;;;8.02;3.90;;;;;;;;;;8357146;28;20051;-67
2021/06/14 22:50:48;;;;;;;9.85;3.60;;;;;;;;;;8357353;28;20466;-66
2021/06/14 22:54:54;;;;;;;6.03;3.40;;;;;;;;;;8355101;28;20378;-66
2021/06/14 22:58:59;;;;;;;7.68;3.42;;;;;;;;;;8357206;28;20043;-67
2021/06/14 23:03:05;;;;;;;7.40;3.70;;;;;;;;;;8356430;28;20470;-66
2021/06/14 23:07:10;;;;;;;7.50;3.40;;;;;;;;;;8356894;28;20478;-67
2021/06/14 23:11:16;;;;;;;6.45;3.03;;;;;;;;;;8357198;28;20339;-68
2021/06/14 23:15:22;;;;;;;6.90;3.72;;;;;;;;;;8356409;28;20095;-66
2021/06/14 23:19:27;;;;;;;8.90;3.63;;;;;;;;;;8338631;28;20043;-66
2021/06/14 23:23:33;;;;;;;10.05;3.83;;;;;;;;;;8356834;28;20489;-66
2021/06/14 23:27:39;;;;;;;7.95;3.88;;;;;;;;;;8357769;28;20401;-66
2021/06/14 23:31:44;;;;;;;5.43;3.00;;;;;;;;;;8356388;28;20373;-66
2021/06/14 23:35:50;;;;;;;5.55;3.40;;;;;;;;;;8358345;28;20370;-66
2021/06/14 23:39:55;;;;;;;7.25;4.13;;;;;;;;;;8357323;28;20455;-66
2021/06/14 23:44:00;;;;;;;7.03;3.53;;;;;;;;;;8356494;28;20336;-67
2021/06/14 23:48:07;;;;;;;7.68;3.25;;;;;;;;;;8356414;28;20056;-66
2021/06/14 23:52:13;;;;;;;6.85;3.30;;;;;;;;;;8358210;28;20363;-67
2021/06/14 23:56:18;;;;;;;9.07;3.85;;;;;;;;;;8355004;28;20464;-66
